Time;durP1;ratioP1;P1;durP2;ratioP2;P2;SDS_P1;SDS_P2;PMS_P1;PMS_P2;Temp;Humidity;BMP_temperature;BMP_pressure;BME280_temperature;BME280_humidity;BME280_pressure;Samples;Min_cycle;Max_cycle;Signal;HPM_P1;HPM_P2
2022/12/25 00:01:34;;;;;;;1.90;1.50;;;25.10;55.10;;;;;;4992336;28;20616;-39
2022/12/25 00:04:05;;;;;;;1.55;1.45;;;25.10;54.90;;;;;;4992583;28;20213;-41
2022/12/25 00:06:37;;;;;;;1.58;1.40;;;25.10;54.70;;;;;;4992680;28;20204;-42
2022/12/25 00:09:08;;;;;;;2.15;1.50;;;25.20;54.70;;;;;;4992158;28;20573;-40
2022/12/25 00:11:39;;;;;;;2.22;1.60;;;25.20;54.70;;;;;;4992137;28;20217;-39
2022/12/25 00:14:10;;;;;;;3.25;1.60;;;25.20;54.60;;;;;;4993203;28;20201;-42
2022/12/25 00:16:40;;;;;;;2.28;1.58;;;25.20;54.50;;;;;;4992155;28;20565;-39
2022/12/25 00:19:11;;;;;;;1.48;1.23;;;25.30;54.50;;;;;;4992664;28;20197;-40
2022/12/25 00:21:44;;;;;;;3.33;1.60;;;25.30;54.50;;;;;;4992387;28;20244;-39
2022/12/25 00:24:14;;;;;;;2.70;1.33;;;25.30;54.50;;;;;;4992515;28;20677;-39
2022/12/25 00:26:45;;;;;;;2.85;1.40;;;25.30;54.50;;;;;;4992426;28;20574;-40
2022/12/25 00:29:16;;;;;;;2.05;1.48;;;25.30;54.40;;;;;;4992406;28;20202;-39
2022/12/25 00:31:47;;;;;;;2.17;1.30;;;25.40;54.50;;;;;;4991503;28;20244;-41
2022/12/25 00:34:17;;;;;;;1.98;1.30;;;25.40;54.30;;;;;;4973077;28;20202;-39
2022/12/25 00:36:52;;;;;;;1.60;1.27;;;25.40;54.20;;;;;;4972570;28;20228;-39
2022/12/25 00:39:23;;;;;;;1.77;1.20;;;25.40;54.30;;;;;;4972434;28;20205;-41
2022/12/25 00:44:41;;;;;;;1.83;1.50;;;25.40;54.20;;;;;;4972502;28;20717;-41
2022/12/25 00:47:11;;;;;;;1.67;1.50;;;25.50;54.30;;;;;;4972142;28;20210;-39
2022/12/25 00:49:42;;;;;;;2.05;1.40;;;25.50;54.20;;;;;;4971859;28;20198;-39
2022/12/25 00:52:15;;;;;;;2.75;1.60;;;25.60;54.20;;;;;;4977625;28;20232;-39
2022/12/25 00:54:45;;;;;;;2.42;1.52;;;25.60;54.20;;;;;;4992180;28;20205;-39
2022/12/25 00:57:16;;;;;;;2.95;1.50;;;25.60;54.20;;;;;;4991237;28;20225;-39
2022/12/25 00:59:47;;;;;;;2.25;1.35;;;25.60;54.00;;;;;;4991576;28;20205;-39
2022/12/25 01:02:27;;;;;;;1.75;1.20;;;25.60;54.10;;;;;;4991048;28;20214;-40
2022/12/25 01:04:58;;;;;;;2.35;1.30;;;25.70;54.10;;;;;;4991341;28;20197;-39
2022/12/25 01:07:31;;;;;;;3.55;1.63;;;25.70;54.00;;;;;;4991482;28;20221;-39
2022/12/25 01:12:48;;;;;;;2.50;1.65;;;25.70;54.00;;;;;;4991535;28;20267;-39
2022/12/25 01:15:19;;;;;;;2.72;1.60;;;25.70;54.10;;;;;;4991408;28;20193;-39
2022/12/25 01:17:50;;;;;;;2.05;1.50;;;25.80;54.10;;;;;;4991905;28;20221;-39
2022/12/25 01:20:20;;;;;;;1.65;1.40;;;25.80;54.00;;;;;;4991809;28;20204;-39
2022/12/25 01:22:53;;;;;;;2.45;1.33;;;25.80;53.80;;;;;;4991473;28;20206;-39
2022/12/25 01:25:24;;;;;;;1.55;1.35;;;25.80;53.80;;;;;;4991612;28;20578;-41
2022/12/25 01:27:54;;;;;;;2.00;1.50;;;25.90;53.70;;;;;;4990887;28;20198;-39
2022/12/25 01:30:25;;;;;;;2.13;1.60;;;25.90;53.60;;;;;;4991406;28;20202;-39
2022/12/25 01:32:56;;;;;;;2.65;1.30;;;25.90;53.70;;;;;;4991288;28;20281;-39
2022/12/25 01:35:27;;;;;;;2.55;1.42;;;25.90;53.60;;;;;;4991165;28;20206;-40
2022/12/25 01:37:59;;;;;;;1.92;1.20;;;25.90;53.50;;;;;;4991550;28;20244;-41
2022/12/25 01:40:30;;;;;;;2.97;1.33;;;25.90;53.30;;;;;;4991336;28;20202;-40
2022/12/25 01:43:00;;;;;;;4.03;1.55;;;25.90;53.40;;;;;;4990811;28;20206;-40
2022/12/25 01:45:41;;;;;;;2.70;1.65;;;26.00;53.50;;;;;;4990974;28;20669;-40
2022/12/25 01:48:20;;;;;;;2.55;1.40;;;26.00;53.30;;;;;;4991247;28;20654;-39
2022/12/25 01:50:53;;;;;;;1.55;1.20;;;26.00;53.20;;;;;;4991255;28;20228;-40
2022/12/25 01:53:26;;;;;;;3.28;1.30;;;26.00;53.30;;;;;;4991252;28;20211;-39
2022/12/25 01:56:05;;;;;;;1.95;1.10;;;26.00;53.30;;;;;;4991121;28;20660;-39
2022/12/25 01:58:36;;;;;;;1.70;1.27;;;26.10;53.40;;;;;;4990909;28;20233;-39
2022/12/25 02:01:07;;;;;;;2.85;1.27;;;26.10;53.30;;;;;;4990989;28;20219;-39
2022/12/25 02:03:38;;;;;;;2.70;1.50;;;26.10;53.30;;;;;;4991365;28;20208;-40
2022/12/25 02:06:10;;;;;;;2.72;1.27;;;26.20;53.30;;;;;;4991382;28;20198;-39
2022/12/25 02:08:43;;;;;;;1.92;1.20;;;26.20;53.20;;;;;;4991041;28;20201;-39
2022/12/25 02:11:55;;;;;;;2.25;1.40;;;26.20;53.00;;;;;;4991037;28;20714;-39
2022/12/25 02:14:05;;;;;;;1.85;1.42;;;26.20;53.00;;;;;;4990931;28;20201;-39
2022/12/25 02:16:40;;;;;;;3.08;1.75;;;26.20;52.90;;;;;;4990669;28;20190;-39
2022/12/25 02:19:24;;;;;;;2.42;1.50;;;26.20;52.90;;;;;;4991162;28;20215;-39
2022/12/25 02:22:10;;;;;;;1.48;1.30;;;26.30;53.00;;;;;;4990940;28;20229;-39
2022/12/25 02:24:57;;;;;;;2.72;1.20;;;26.30;53.00;;;;;;4990732;28;20655;-39
2022/12/25 02:27:49;;;;;;;2.05;1.25;;;26.30;53.00;;;;;;4990957;28;20672;-39
2022/12/25 02:30:22;;;;;;;2.40;1.40;;;26.30;53.00;;;;;;4989637;28;20202;-39
2022/12/25 02:35:44;;;;;;;1.60;1.30;;;26.40;52.90;;;;;;4990980;28;20190;-39
2022/12/25 02:38:19;;;;;;;2.22;1.23;;;26.40;52.80;;;;;;4990785;28;20233;-39
2022/12/25 02:40:54;;;;;;;1.42;1.00;;;26.40;52.80;;;;;;4993352;28;20225;-39
2022/12/25 03:11:29;;;;;;;2.60;1.63;;;26.70;52.80;;;;;;4994377;28;20229;-39
2022/12/25 03:11:48;;;;;;;2.08;1.38;;;26.80;52.70;;;;;;4994214;28;20304;-40
2022/12/25 03:17:06;;;;;;;1.85;1.70;;;26.80;53.10;;;;;;4994231;28;20229;-39
2022/12/25 03:28:01;;;;;;;2.83;1.38;;;27.00;52.40;;;;;;4994197;28;20200;-39
2022/12/25 03:33:36;;;;;;;2.38;1.60;;;27.00;52.20;;;;;;4993763;28;20196;-40
2022/12/25 03:36:13;;;;;;;3.88;1.40;;;27.00;52.20;;;;;;4993585;28;20677;-44
2022/12/25 04:38:02;;;;;;;10.73;2.42;;;27.10;51.90;;;;;;4987017;28;20876;-40
2022/12/25 04:40:33;;;;;;;10.07;3.00;;;27.20;51.90;;;;;;4991828;28;20193;-39
2022/12/25 04:43:06;;;;;;;4.88;2.10;;;27.10;51.90;;;;;;4992177;28;20701;-39
2022/12/25 04:45:36;;;;;;;4.07;1.90;;;27.00;52.00;;;;;;4992257;28;20679;-41
2022/12/25 04:48:07;;;;;;;6.03;2.30;;;27.00;52.10;;;;;;4991648;28;20197;-39
2022/12/25 04:50:38;;;;;;;8.30;2.47;;;27.00;52.00;;;;;;4991278;28;20201;-39
2022/12/25 04:53:09;;;;;;;6.15;2.40;;;27.00;52.10;;;;;;4991823;28;20716;-39
2022/12/25 04:55:39;;;;;;;7.53;2.35;;;27.00;52.10;;;;;;4991930;28;20198;-40
2022/12/25 04:58:12;;;;;;;9.55;2.75;;;27.00;52.10;;;;;;4991646;28;20225;-39
2022/12/25 05:00:43;;;;;;;6.50;2.15;;;27.00;52.20;;;;;;4991434;28;20232;-40
2022/12/25 05:03:14;;;;;;;7.32;2.45;;;26.90;52.20;;;;;;4991937;28;20197;-39
2022/12/25 05:05:44;;;;;;;5.57;2.17;;;26.90;52.20;;;;;;4991520;28;20186;-38
2022/12/25 05:08:15;;;;;;;5.15;2.13;;;26.90;52.30;;;;;;4991503;28;20197;-42
2022/12/25 05:10:46;;;;;;;6.35;2.28;;;26.90;52.40;;;;;;4991181;28;20217;-39
2022/12/25 05:13:18;;;;;;;4.72;2.28;;;26.80;52.40;;;;;;4991901;28;20224;-39
2022/12/25 05:15:49;;;;;;;6.68;2.40;;;26.80;52.50;;;;;;4991233;28;20197;-39
2022/12/25 05:18:20;;;;;;;6.47;2.58;;;26.80;52.50;;;;;;4991311;28;20232;-39
2022/12/25 05:20:55;;;;;;;6.63;2.42;;;26.90;52.60;;;;;;4991240;28;20218;-39
2022/12/25 05:23:27;;;;;;;4.68;2.30;;;26.80;52.50;;;;;;4991825;28;20205;-40
2022/12/25 05:25:58;;;;;;;6.25;2.45;;;26.80;52.50;;;;;;4992051;28;20205;-40
2022/12/25 05:28:31;;;;;;;6.47;2.22;;;26.80;52.50;;;;;;4991768;28;20201;-39
2022/12/25 05:31:01;;;;;;;4.60;2.45;;;26.80;52.50;;;;;;4991462;28;20224;-39
2022/12/25 05:33:32;;;;;;;7.65;2.50;;;26.80;52.50;;;;;;4991603;28;20657;-39
2022/12/25 05:36:06;;;;;;;4.60;2.00;;;26.80;52.50;;;;;;4991709;28;20202;-41
2022/12/25 05:38:36;;;;;;;9.60;2.60;;;26.80;52.50;;;;;;4990866;28;20225;-43
2022/12/25 05:41:07;;;;;;;5.85;2.67;;;26.80;52.40;;;;;;4990921;28;20307;-41
2022/12/25 05:43:40;;;;;;;4.15;1.88;;;26.80;52.50;;;;;;4990879;28;20654;-39
2022/12/25 05:46:11;;;;;;;3.55;2.20;;;26.80;52.40;;;;;;4991240;28;20201;-39
2022/12/25 05:48:42;;;;;;;6.05;2.10;;;26.70;52.40;;;;;;4990553;28;20201;-40
2022/12/25 05:51:14;;;;;;;4.45;2.10;;;26.80;52.60;;;;;;4990346;28;20221;-40
2022/12/25 05:53:45;;;;;;;5.18;2.28;;;26.70;52.60;;;;;;4991019;28;20658;-40
2022/12/25 05:56:16;;;;;;;3.90;2.10;;;26.70;52.70;;;;;;4990674;28;20854;-39
2022/12/25 05:58:49;;;;;;;3.70;2.00;;;26.70;52.70;;;;;;4990705;28;20232;-39
2022/12/25 06:01:22;;;;;;;4.40;2.15;;;26.70;52.70;;;;;;4990535;28;20226;-39
2022/12/25 06:03:53;;;;;;;4.25;2.10;;;26.70;52.60;;;;;;4991249;28;20202;-40
2022/12/25 06:06:24;;;;;;;4.50;2.30;;;26.70;52.70;;;;;;4991163;28;20205;-39
2022/12/25 06:08:56;;;;;;;6.20;2.25;;;26.70;52.70;;;;;;4991104;28;20568;-40
2022/12/25 06:11:27;;;;;;;4.00;2.15;;;26.70;52.50;;;;;;4991268;28;20218;-42
2022/12/25 06:14:00;;;;;;;4.55;2.05;;;26.70;52.50;;;;;;4990823;28;20201;-39
2022/12/25 06:16:30;;;;;;;4.55;1.90;;;26.70;52.50;;;;;;4994861;28;20548;-39
2022/12/25 06:19:01;;;;;;;3.40;1.75;;;26.70;52.60;;;;;;4994435;28;20221;-43
2022/12/25 06:21:32;;;;;;;3.08;1.98;;;26.60;52.60;;;;;;4994575;28;20218;-39
2022/12/25 06:24:03;;;;;;;5.13;2.00;;;26.70;52.70;;;;;;4975876;28;20202;-39
2022/12/25 06:26:34;;;;;;;5.47;2.05;;;26.60;52.80;;;;;;4975283;28;20206;-39
2022/12/25 06:29:07;;;;;;;3.35;1.83;;;26.60;52.80;;;;;;4994161;28;20216;-39
2022/12/25 06:31:37;;;;;;;3.13;1.90;;;26.60;52.80;;;;;;4994797;28;20697;-40
2022/12/25 06:34:09;;;;;;;3.55;2.10;;;26.60;52.80;;;;;;4994852;28;20208;-38
2022/12/25 06:36:40;;;;;;;4.75;2.15;;;26.60;52.80;;;;;;4994575;28;20301;-39
2022/12/25 06:39:11;;;;;;;4.03;1.88;;;26.60;52.70;;;;;;4994233;28;20229;-40
2022/12/25 06:41:41;;;;;;;3.67;1.90;;;26.60;52.80;;;;;;4994547;28;20235;-39
2022/12/25 06:44:14;;;;;;;3.70;1.90;;;26.60;52.70;;;;;;4994575;28;20201;-40
2022/12/25 06:46:45;;;;;;;2.40;1.63;;;26.60;52.80;;;;;;4994587;28;20205;-39
2022/12/25 06:49:15;;;;;;;2.97;1.85;;;26.60;52.80;;;;;;4994186;28;20201;-46
2022/12/25 06:51:46;;;;;;;2.70;2.03;;;26.60;52.80;;;;;;4993974;28;20963;-39
2022/12/25 06:54:17;;;;;;;3.17;1.80;;;26.50;52.60;;;;;;4994094;28;20201;-40
2022/12/25 06:56:47;;;;;;;2.92;1.77;;;26.50;52.60;;;;;;4994283;28;20197;-40
2022/12/25 06:59:20;;;;;;;4.45;1.88;;;26.50;52.70;;;;;;4994380;28;20226;-39
2022/12/25 07:01:53;;;;;;;2.75;1.80;;;26.50;52.70;;;;;;4993873;28;20233;-39
2022/12/25 07:04:30;;;;;;;2.67;1.83;;;26.50;52.70;;;;;;4993230;28;20320;-42
2022/12/25 07:07:01;;;;;;;3.55;2.00;;;26.50;52.60;;;;;;4993632;28;20260;-39
2022/12/25 07:09:32;;;;;;;3.25;2.10;;;26.50;52.60;;;;;;4993759;28;20209;-39
2022/12/25 07:12:07;;;;;;;2.90;1.77;;;26.50;52.60;;;;;;4993821;28;20214;-39
2022/12/25 07:14:39;;;;;;;2.58;1.80;;;26.50;52.60;;;;;;4993806;28;20197;-40
2022/12/25 07:17:10;;;;;;;3.25;2.08;;;26.50;52.60;;;;;;4993771;28;20198;-42
2022/12/25 07:19:41;;;;;;;2.80;2.15;;;26.50;52.60;;;;;;4993784;28;20229;-39
2022/12/25 07:22:12;;;;;;;3.47;1.95;;;26.50;52.60;;;;;;4992483;28;20221;-40
2022/12/25 07:24:42;;;;;;;5.53;2.20;;;26.50;52.60;;;;;;4993930;28;20302;-41
2022/12/25 07:27:13;;;;;;;2.92;1.90;;;26.50;52.70;;;;;;4992493;28;20194;-39
2022/12/25 07:29:45;;;;;;;3.03;1.98;;;26.50;52.60;;;;;;4993743;28;20208;-39
2022/12/25 07:32:16;;;;;;;2.83;1.73;;;26.50;52.70;;;;;;4993559;28;20218;-39
2022/12/25 07:34:47;;;;;;;2.80;1.90;;;26.50;52.60;;;;;;4993405;28;20201;-39
2022/12/25 07:37:17;;;;;;;3.00;1.80;;;26.50;52.70;;;;;;4993178;28;20570;-39
2022/12/25 07:39:48;;;;;;;3.10;1.90;;;26.50;52.70;;;;;;4992772;28;20226;-42
2022/12/25 07:42:19;;;;;;;2.60;1.80;;;26.40;52.70;;;;;;4992832;28;20228;-39
2022/12/25 07:44:51;;;;;;;3.63;2.17;;;26.40;52.70;;;;;;4992871;28;20208;-39
2022/12/25 07:47:22;;;;;;;2.88;1.70;;;26.40;52.70;;;;;;4993026;28;20217;-40
2022/12/25 07:49:53;;;;;;;2.67;1.80;;;26.40;52.60;;;;;;4993182;28;20571;-41
2022/12/25 07:52:23;;;;;;;2.65;1.85;;;26.40;52.60;;;;;;4993186;28;20228;-41
2022/12/25 07:54:54;;;;;;;3.17;1.77;;;26.40;52.70;;;;;;4993013;28;20205;-39
2022/12/25 07:57:25;;;;;;;3.60;1.80;;;26.30;52.60;;;;;;4993335;28;20209;-39
2022/12/25 07:59:57;;;;;;;3.70;1.70;;;26.30;52.70;;;;;;4992891;28;20583;-41
2022/12/25 08:02:29;;;;;;;2.72;1.73;;;26.30;52.60;;;;;;4992844;28;20222;-39
2022/12/25 08:04:59;;;;;;;2.72;1.70;;;26.30;52.70;;;;;;4992951;28;20263;-39
2022/12/25 08:07:30;;;;;;;3.60;2.03;;;26.20;52.80;;;;;;4992575;28;20224;-39
2022/12/25 08:10:01;;;;;;;4.38;1.85;;;26.20;52.60;;;;;;4992100;28;20190;-39
2022/12/25 08:12:31;;;;;;;2.80;1.60;;;26.20;52.70;;;;;;4992030;28;20217;-44
2022/12/25 08:15:04;;;;;;;3.38;1.80;;;26.20;52.80;;;;;;4992019;28;20677;-42
2022/12/25 08:17:37;;;;;;;2.83;1.88;;;26.20;52.80;;;;;;4992117;28;20256;-40
2022/12/25 08:20:08;;;;;;;4.15;2.15;;;26.20;52.80;;;;;;4992162;28;20229;-40
2022/12/25 08:22:39;;;;;;;4.32;2.45;;;26.10;52.80;;;;;;4992285;28;20238;-41
2022/12/25 08:25:10;;;;;;;4.38;2.00;;;26.10;53.00;;;;;;4992500;28;20197;-39
2022/12/25 08:27:41;;;;;;;3.75;1.73;;;26.00;52.90;;;;;;4992332;28;20670;-46
2022/12/25 08:30:14;;;;;;;4.82;2.20;;;26.10;53.00;;;;;;4991987;28;20201;-41
2022/12/25 08:32:45;;;;;;;5.78;2.20;;;26.00;53.00;;;;;;4992123;28;20292;-52
2022/12/25 08:35:16;;;;;;;5.95;2.40;;;26.00;53.00;;;;;;4992042;28;20197;-45
2022/12/25 08:37:46;;;;;;;5.32;2.10;;;26.00;52.90;;;;;;4991695;28;20728;-47
2022/12/25 08:40:17;;;;;;;5.07;1.90;;;26.00;52.90;;;;;;4992064;28;20226;-39
2022/12/25 08:42:48;;;;;;;3.88;1.83;;;25.90;52.90;;;;;;4992340;28;20216;-45
2022/12/25 08:45:21;;;;;;;3.38;2.13;;;25.90;52.90;;;;;;4992199;28;20575;-45
2022/12/25 08:47:55;;;;;;;4.53;2.40;;;25.90;52.90;;;;;;4991980;28;20196;-45
2022/12/25 08:50:26;;;;;;;3.95;2.13;;;25.80;53.00;;;;;;4991977;28;20193;-43
2022/12/25 08:52:57;;;;;;;4.75;2.25;;;25.80;53.00;;;;;;4991945;28;20202;-41
2022/12/25 08:55:27;;;;;;;4.47;2.00;;;25.80;52.90;;;;;;4992052;28;20284;-46
2022/12/25 08:57:58;;;;;;;3.13;2.03;;;25.80;52.90;;;;;;4991991;28;20198;-41
2022/12/25 09:00:31;;;;;;;3.25;2.10;;;25.70;52.90;;;;;;4990838;28;20225;-45
2022/12/25 09:03:01;;;;;;;4.15;2.20;;;25.70;52.90;;;;;;4991832;28;20197;-43
2022/12/25 09:05:32;;;;;;;3.05;1.90;;;25.70;52.90;;;;;;4991803;28;20198;-46
2022/12/25 09:08:03;;;;;;;6.93;2.22;;;25.70;52.90;;;;;;4991868;28;20206;-44
2022/12/25 09:10:36;;;;;;;4.00;1.92;;;25.70;52.90;;;;;;4991436;28;20202;-44
2022/12/25 09:13:07;;;;;;;3.40;1.77;;;25.60;52.80;;;;;;4991816;28;20632;-44
2022/12/25 09:15:40;;;;;;;2.55;1.85;;;25.60;52.90;;;;;;4991581;28;20202;-41
2022/12/25 09:18:11;;;;;;;4.07;2.03;;;25.60;52.90;;;;;;4991491;28;20212;-48
2022/12/25 09:20:42;;;;;;;4.20;2.00;;;25.60;53.00;;;;;;4991654;28;20233;-46
2022/12/25 09:23:12;;;;;;;5.13;2.38;;;25.50;52.90;;;;;;4991466;28;20665;-42
2022/12/25 09:25:43;;;;;;;2.33;1.75;;;25.50;53.00;;;;;;4991841;28;20205;-47
2022/12/25 09:28:14;;;;;;;3.15;1.80;;;25.50;53.00;;;;;;4988129;28;20209;-43
2022/12/25 09:30:46;;;;;;;2.58;1.90;;;25.40;53.00;;;;;;4988958;28;20682;-40
2022/12/25 09:33:17;;;;;;;3.97;1.90;;;25.40;52.90;;;;;;4989387;28;20201;-47
2022/12/25 09:35:56;;;;;;;3.35;2.30;;;25.40;52.90;;;;;;4990069;28;20200;-39
2022/12/25 09:38:27;;;;;;;3.75;2.03;;;25.30;52.90;;;;;;4990302;28;20200;-40
2022/12/25 09:41:06;;;;;;;2.80;2.20;;;25.30;52.80;;;;;;4991123;28;20737;-44
2022/12/25 09:43:42;;;;;;;4.00;2.00;;;25.30;52.80;;;;;;4991112;28;20213;-43
2022/12/25 09:46:19;;;;;;;3.42;1.77;;;25.30;52.70;;;;;;4990552;28;20190;-46
2022/12/25 09:48:58;;;;;;;5.18;2.03;;;25.30;52.70;;;;;;4987961;28;20201;-44
2022/12/25 09:51:31;;;;;;;3.33;1.92;;;25.30;52.80;;;;;;4994175;28;20221;-39
2022/12/25 09:54:05;;;;;;;5.72;2.53;;;25.20;52.80;;;;;;4974926;28;20205;-39
2022/12/25 09:56:36;;;;;;;3.45;2.00;;;25.20;52.80;;;;;;4974716;28;20201;-41
2022/12/25 09:59:15;;;;;;;3.15;1.95;;;25.10;52.70;;;;;;4975217;28;20229;-39
2022/12/25 10:01:59;;;;;;;3.75;2.10;;;25.10;52.80;;;;;;4974971;28;20225;-42
2022/12/25 10:04:49;;;;;;;3.28;2.03;;;25.10;52.80;;;;;;4981117;28;20196;-39
2022/12/25 10:07:26;;;;;;;3.33;2.10;;;25.10;52.80;;;;;;4994047;28;20198;-40
2022/12/25 10:10:06;;;;;;;4.35;2.25;;;25.00;52.70;;;;;;4993968;28;20197;-39
2022/12/25 10:12:48;;;;;;;4.18;2.03;;;25.00;52.70;;;;;;4994505;28;20217;-41
2022/12/25 10:15:33;;;;;;;3.80;2.03;;;25.00;52.70;;;;;;4994466;28;20233;-44
2022/12/25 10:18:39;;;;;;;2.92;1.95;;;25.00;52.70;;;;;;4992495;28;20208;-39
2022/12/25 10:21:14;;;;;;;2.80;1.90;;;24.90;52.70;;;;;;4994636;28;20221;-44
2022/12/25 10:23:49;;;;;;;2.83;2.10;;;24.90;52.60;;;;;;4993413;28;20193;-39
2022/12/25 10:26:24;;;;;;;3.22;2.00;;;24.90;52.70;;;;;;4994421;28;20205;-43
2022/12/25 10:29:00;;;;;;;3.72;1.90;;;24.90;52.80;;;;;;4993822;28;20212;-41
2022/12/25 10:31:32;;;;;;;3.20;2.10;;;24.80;52.80;;;;;;4992747;28;20232;-41
2022/12/25 10:34:05;;;;;;;2.83;2.00;;;24.80;52.80;;;;;;4994018;28;20198;-39
2022/12/25 10:36:36;;;;;;;3.30;1.80;;;24.80;52.80;;;;;;4993472;28;20198;-46
2022/12/25 10:39:07;;;;;;;2.10;1.90;;;24.70;52.70;;;;;;4994276;28;20575;-42
2022/12/25 10:42:11;;;;;;;3.42;2.03;;;24.70;52.70;;;;;;4993729;28;20222;-44
2022/12/25 10:44:42;;;;;;;2.53;2.08;;;24.70;52.70;;;;;;4990614;28;20204;-40
2022/12/25 10:47:13;;;;;;;4.38;2.10;;;24.60;52.70;;;;;;4973572;28;20195;-47
2022/12/25 10:49:45;;;;;;;2.53;1.75;;;24.70;52.80;;;;;;4974403;28;20202;-41
2022/12/25 10:52:23;;;;;;;3.58;1.90;;;24.60;52.70;;;;;;4979448;28;20253;-40
2022/12/25 10:54:54;;;;;;;3.45;1.80;;;24.60;52.70;;;;;;4993591;28;20197;-46
2022/12/25 10:57:26;;;;;;;2.55;1.92;;;24.60;52.70;;;;;;4992908;28;20202;-39
2022/12/25 11:00:00;;;;;;;2.70;1.77;;;24.50;52.60;;;;;;4993031;28;20312;-42
2022/12/25 11:02:36;;;;;;;2.63;1.83;;;24.50;52.60;;;;;;4994057;28;20264;-43
2022/12/25 11:05:10;;;;;;;2.45;1.83;;;24.50;52.70;;;;;;4993073;28;21714;-39
2022/12/25 11:07:50;;;;;;;2.88;1.65;;;24.50;52.70;;;;;;4974189;28;20198;-39
2022/12/25 11:10:24;;;;;;;3.10;1.95;;;24.40;52.70;;;;;;4973865;28;20202;-43
2022/12/25 11:12:56;;;;;;;3.45;1.90;;;24.40;52.60;;;;;;4974140;28;20212;-39
2022/12/25 11:15:39;;;;;;;2.95;2.00;;;24.40;52.70;;;;;;4973532;28;20218;-40
2022/12/25 11:18:21;;;;;;;2.15;1.70;;;24.40;52.80;;;;;;4974038;28;20194;-39
2022/12/25 11:20:56;;;;;;;3.40;1.75;;;24.30;52.80;;;;;;4973688;28;20226;-39
2022/12/25 11:23:29;;;;;;;2.58;1.80;;;24.30;52.80;;;;;;4989253;28;20577;-39
2022/12/25 11:26:01;;;;;;;3.35;1.73;;;24.30;52.70;;;;;;4994154;28;20202;-39
2022/12/25 11:28:34;;;;;;;10.65;2.45;;;24.30;52.80;;;;;;4993980;28;20206;-42
2022/12/25 11:31:08;;;;;;;4.28;1.95;;;24.30;52.70;;;;;;5000489;28;20230;-42
2022/12/25 11:33:43;;;;;;;7.70;2.60;;;24.30;52.70;;;;;;5000587;28;20195;-40
2022/12/25 11:36:53;;;;;;;4.95;2.17;;;24.30;52.50;;;;;;5002569;28;20275;-41
2022/12/25 11:39:59;;;;;;;4.13;2.33;;;24.20;52.60;;;;;;5000471;28;20236;-45
2022/12/25 11:42:36;;;;;;;4.28;1.88;;;24.20;52.70;;;;;;5000078;28;20212;-39
2022/12/25 11:45:13;;;;;;;5.28;2.20;;;24.20;52.80;;;;;;5003219;28;20642;-39
2022/12/25 11:47:46;;;;;;;4.85;2.22;;;24.20;52.90;;;;;;5001305;28;20189;-40
2022/12/25 11:50:26;;;;;;;7.82;2.40;;;24.10;52.90;;;;;;4999473;28;20194;-42
2022/12/25 11:53:00;;;;;;;8.13;3.10;;;24.20;53.00;;;;;;4997383;28;20668;-39
2022/12/25 11:55:37;;;;;;;5.45;2.97;;;24.10;53.30;;;;;;4993201;28;20354;-42
2022/12/25 11:58:19;;;;;;;4.85;2.60;;;24.10;53.40;;;;;;4993468;28;20204;-44
2022/12/25 12:00:51;;;;;;;5.55;2.95;;;24.10;53.50;;;;;;4993012;28;20504;-39
2022/12/25 12:03:26;;;;;;;4.97;2.53;;;24.10;53.50;;;;;;4992928;28;20197;-39
2022/12/25 12:05:59;;;;;;;6.05;3.38;;;24.10;53.50;;;;;;4992436;28;20201;-41
2022/12/25 12:08:30;;;;;;;5.75;2.65;;;24.10;53.70;;;;;;4992825;28;20208;-40
2022/12/25 12:11:17;;;;;;;6.15;2.80;;;24.10;53.60;;;;;;4992386;28;20217;-39
2022/12/25 12:14:04;;;;;;;4.55;2.70;;;24.10;53.60;;;;;;4991434;28;20193;-40
2022/12/25 12:16:36;;;;;;;6.38;2.90;;;24.10;53.60;;;;;;4992184;28;20190;-42
2022/12/25 12:19:15;;;;;;;4.70;2.80;;;24.00;53.60;;;;;;4992291;28;20223;-39
2022/12/25 12:21:51;;;;;;;4.97;2.80;;;24.00;53.60;;;;;;4991966;28;20221;-39
2022/12/25 12:24:24;;;;;;;5.80;2.90;;;24.00;53.60;;;;;;4992185;28;20201;-45
2022/12/25 12:27:04;;;;;;;7.40;3.58;;;24.00;53.70;;;;;;4991193;28;20633;-40
2022/12/25 12:29:42;;;;;;;6.10;3.13;;;24.00;53.90;;;;;;4991583;28;20580;-42
2022/12/25 12:32:31;;;;;;;6.20;3.08;;;24.00;54.10;;;;;;4990185;28;20223;-39
2022/12/25 12:35:07;;;;;;;4.80;2.95;;;24.00;54.10;;;;;;4990843;28;20208;-39
2022/12/25 12:37:40;;;;;;;6.72;3.13;;;24.00;54.10;;;;;;4991155;28;20197;-39
2022/12/25 12:40:27;;;;;;;5.45;3.38;;;24.00;54.10;;;;;;4991283;28;20239;-39
2022/12/25 12:42:58;;;;;;;5.03;3.20;;;24.00;54.10;;;;;;4991242;28;20197;-39
2022/12/25 12:45:33;;;;;;;5.43;3.33;;;23.90;54.00;;;;;;4991491;28;20876;-39
2022/12/25 12:48:15;;;;;;;6.38;3.38;;;23.90;54.00;;;;;;4991396;28;20205;-42
2022/12/25 12:50:46;;;;;;;3.33;2.85;;;23.90;54.00;;;;;;4990705;28;20599;-39
2022/12/25 12:53:34;;;;;;;5.50;3.20;;;23.90;54.00;;;;;;4991036;28;20206;-46
2022/12/25 12:56:16;;;;;;;4.78;2.80;;;23.90;54.00;;;;;;4990959;28;20209;-40
2022/12/25 12:58:49;;;;;;;4.28;3.00;;;23.80;53.90;;;;;;4990630;28;20201;-39
2022/12/25 13:01:41;;;;;;;4.55;3.30;;;23.80;54.00;;;;;;4989978;28;20264;-39
2022/12/25 13:04:33;;;;;;;4.65;2.90;;;23.80;54.00;;;;;;4991354;28;20205;-39
2022/12/25 13:07:13;;;;;;;5.78;3.33;;;23.80;54.00;;;;;;4991193;28;20197;-39
2022/12/25 13:10:02;;;;;;;5.72;2.90;;;23.70;53.90;;;;;;4990842;28;20197;-39
2022/12/25 13:12:33;;;;;;;4.60;2.85;;;23.70;53.90;;;;;;4990746;28;20224;-39
2022/12/25 13:15:04;;;;;;;4.15;2.72;;;23.70;53.90;;;;;;4991219;28;20221;-39
2022/12/25 13:17:37;;;;;;;4.63;2.90;;;23.70;53.90;;;;;;4991259;28;20631;-40
2022/12/25 13:20:09;;;;;;;3.80;2.75;;;23.70;53.90;;;;;;4990555;28;20239;-40
2022/12/25 13:22:39;;;;;;;4.63;2.65;;;23.70;53.90;;;;;;4990712;28;20225;-39
2022/12/25 13:25:21;;;;;;;4.60;2.83;;;23.70;53.90;;;;;;4883556;28;3131367;-40
2022/12/25 13:27:59;;;;;;;4.00;2.78;;;23.70;53.90;;;;;;4991779;28;20205;-42
2022/12/25 13:30:30;;;;;;;3.63;2.80;;;23.70;53.90;;;;;;4991292;28;20199;-40
2022/12/25 13:33:02;;;;;;;4.78;2.70;;;23.60;53.90;;;;;;4991327;28;20193;-44
2022/12/25 13:35:33;;;;;;;4.60;2.72;;;23.60;53.90;;;;;;4991467;28;20202;-39
2022/12/25 13:38:04;;;;;;;3.70;2.67;;;23.60;54.00;;;;;;4991185;28;20198;-39
2022/12/25 13:40:35;;;;;;;3.60;2.72;;;23.50;54.00;;;;;;4991111;28;20240;-39
2022/12/25 13:43:04;;;;;;;3.15;2.42;;;23.50;54.00;;;;;;4991153;28;20220;-39
2022/12/25 13:45:35;;;;;;;4.28;3.00;;;23.50;54.00;;;;;;4991384;28;20198;-39
2022/12/25 13:48:18;;;;;;;4.95;3.13;;;23.50;54.00;;;;;;4991353;28;20201;-39
2022/12/25 13:50:59;;;;;;;3.85;2.80;;;23.50;54.00;;;;;;4990834;28;20228;-39
2022/12/25 13:53:30;;;;;;;3.53;2.70;;;23.50;53.90;;;;;;4991055;28;20208;-39
2022/12/25 13:56:02;;;;;;;3.90;2.80;;;23.50;53.90;;;;;;4991203;28;20209;-39
2022/12/25 13:58:35;;;;;;;3.45;2.60;;;23.50;53.90;;;;;;4991068;28;20189;-39
2022/12/25 14:01:06;;;;;;;5.93;2.85;;;23.50;53.90;;;;;;4991214;28;20233;-38
2022/12/25 14:03:44;;;;;;;3.83;2.53;;;23.40;53.90;;;;;;4991059;28;20212;-39
2022/12/25 14:06:21;;;;;;;4.90;3.05;;;23.40;54.00;;;;;;4991402;28;20205;-39
2022/12/25 14:08:53;;;;;;;2.95;2.42;;;23.40;53.90;;;;;;4991472;28;20204;-39
2022/12/25 14:11:26;;;;;;;3.53;2.30;;;23.40;53.90;;;;;;4991273;28;20251;-39
2022/12/25 14:14:02;;;;;;;4.30;2.70;;;23.40;53.90;;;;;;4990818;28;20200;-39
2022/12/25 14:16:33;;;;;;;3.85;2.40;;;23.40;54.60;;;;;;4991125;28;20201;-39
2022/12/25 14:19:20;;;;;;;3.25;2.40;;;23.30;54.00;;;;;;4991796;28;20202;-39
2022/12/25 14:21:58;;;;;;;3.67;2.58;;;23.30;54.00;;;;;;4991264;28;20694;-39
2022/12/25 14:24:31;;;;;;;3.15;2.53;;;23.30;54.00;;;;;;4991459;28;20204;-39
2022/12/25 14:27:04;;;;;;;3.05;2.30;;;23.30;54.00;;;;;;4990298;28;20297;-42
2022/12/25 14:29:39;;;;;;;3.30;2.25;;;23.30;54.00;;;;;;4991048;28;20205;-41
2022/12/25 14:32:14;;;;;;;3.90;2.45;;;23.30;54.00;;;;;;4991102;28;20228;-39
2022/12/25 14:34:47;;;;;;;3.38;2.47;;;23.30;53.90;;;;;;4990329;28;20190;-39
2022/12/25 14:37:20;;;;;;;3.78;2.15;;;23.30;53.90;;;;;;4994404;28;20213;-38
2022/12/25 14:39:59;;;;;;;2.50;2.05;;;23.30;54.00;;;;;;4994150;28;20193;-39
2022/12/25 14:42:32;;;;;;;3.25;2.42;;;23.20;54.00;;;;;;4993916;28;20595;-39
2022/12/25 14:45:05;;;;;;;2.42;2.05;;;23.20;54.00;;;;;;4994476;28;20205;-42
2022/12/25 14:47:52;;;;;;;4.00;2.40;;;23.20;54.00;;;;;;4994485;28;20667;-39
2022/12/25 14:50:32;;;;;;;2.67;2.13;;;23.20;54.00;;;;;;4994017;28;20205;-44
2022/12/25 14:53:03;;;;;;;3.20;2.30;;;23.20;54.00;;;;;;4994025;28;20202;-39
2022/12/25 14:55:34;;;;;;;2.85;1.90;;;23.10;54.00;;;;;;4994547;28;20201;-39
2022/12/25 14:58:06;;;;;;;4.80;2.20;;;23.20;54.00;;;;;;4994535;28;20194;-39
2022/12/25 15:00:39;;;;;;;3.03;2.40;;;23.10;54.00;;;;;;4993642;28;20275;-39
2022/12/25 15:03:22;;;;;;;4.53;2.10;;;23.10;54.00;;;;;;4994373;28;20653;-39
2022/12/25 15:06:03;;;;;;;2.63;2.03;;;23.10;54.00;;;;;;4994327;28;20198;-42
2022/12/25 15:08:35;;;;;;;2.85;2.13;;;23.10;54.00;;;;;;4994296;28;20289;-39